This is the latest recevied weather packets stored in our database for station/object W1HVD. If no packets are shown the sender has not sent any weather packets the latest 10 day(s).
| Time | Temp. | Humidity | Pressure | Rain* | Wind** | Luminosity | Snow |
|---|---|---|---|---|---|---|---|
| 1777732137 | 14.44° C | 68% | 1011.5 hPa | 0 mm | - | 650 W/m² | - |
| 1777731834 | 14.44° C | 66% | 1012 hPa | 0 mm | - | 624 W/m² | - |
| 1777731531 | 13.89° C | 70% | 1012 hPa | 0 mm | - | 562 W/m² | - |
| 1777731229 | 14.44° C | 68% | 1012.5 hPa | 0 mm | - | 510 W/m² | - |
| 1777730926 | 13.89° C | 72% | 1012.6 hPa | 0 mm | - | 711 W/m² | - |
| 1777730624 | 13.89° C | 70% | 1012.3 hPa | 0 mm | - | 547 W/m² | - |
| 1777730320 | 13.33° C | 72% | 1012.6 hPa | 0 mm | - | 186 W/m² | - |
| 1777730017 | 12.78° C | 73% | 1012.4 hPa | 0 mm | - | 528 W/m² | - |
| 1777729713 | 12.22° C | 75% | 1012.4 hPa | 0 mm | - | 448 W/m² | - |
| 1777729410 | 12.22° C | 76% | 1012.6 hPa | 0 mm | - | 118 W/m² | - |
| 1777729106 | 12.78° C | 74% | 1012.8 hPa | 0 mm | - | 58 W/m² | - |
| 1777728803 | 12.78° C | 74% | 1012.9 hPa | 0 mm | - | 125 W/m² | - |
| 1777728500 | 12.78° C | 72% | 1013.1 hPa | 0 mm | - | 170 W/m² | - |
| 1777728197 | 12.78° C | 73% | 1012.7 hPa | 0 mm | - | 574 W/m² | - |
| 1777727894 | 12.78° C | 73% | 1012.7 hPa | 0 mm | - | 508 W/m² | - |
| 1777727591 | 12.22° C | 74% | 1012.7 hPa | 0 mm | - | 379 W/m² | - |
| 1777727288 | 11.67° C | 76% | 1012.6 hPa | 0 mm | - | 170 W/m² | - |
| 1777726986 | 11.67° C | 76% | 1012.3 hPa | 0 mm | - | 101 W/m² | - |
| 1777726682 | 11.67° C | 76% | 1012.9 hPa | 0 mm | - | 101 W/m² | - |
| 1777726380 | 11.67° C | 76% | 1012.7 hPa | 0 mm | - | 220 W/m² | - |
| 1777726076 | 11.67° C | 76% | 1012.7 hPa | 0 mm | - | 134 W/m² | - |
| 1777725773 | 11.67° C | 77% | 1012.7 hPa | 0 mm | - | 77 W/m² | - |
| 1777725472 | 11.67° C | 75% | 1012.4 hPa | 0 mm | - | 102 W/m² | - |
| 1777725169 | 11.67° C | 75% | 1012.5 hPa | 0 mm | - | 201 W/m² | - |
| 1777724865 | 11.67° C | 78% | 1012.6 hPa | 0 mm | - | 220 W/m² | - |
* Rain latest hour (hover to see other rain measurements)
** Current wind speed in m/s (hover to see current wind gust speed)